createdAt,value
2018-05-12T00:00:52.883Z,85.40
2018-05-12T00:03:21.557Z,85.80
2018-05-12T00:05:49.469Z,85.80
2018-05-12T00:08:18.377Z,86.30
2018-05-12T00:10:46.842Z,86.30
2018-05-12T00:13:14.451Z,86.30
2018-05-12T00:15:42.175Z,87.30
2018-05-12T00:18:11.676Z,86.60
2018-05-12T00:20:39.376Z,86.60
2018-05-12T00:23:07.094Z,87.50
2018-05-12T00:25:34.920Z,87.50
2018-05-12T00:28:02.642Z,87.50
2018-05-12T00:30:30.359Z,87.60
2018-05-12T00:32:58.021Z,87.80
2018-05-12T00:35:25.852Z,87.70
2018-05-12T00:37:53.544Z,87.80
2018-05-12T00:40:21.422Z,88.00
2018-05-12T00:42:49.205Z,88.40
2018-05-12T00:45:16.987Z,88.60
2018-05-12T00:47:44.692Z,88.80
2018-05-12T00:50:12.476Z,88.50
2018-05-12T00:52:40.127Z,89.40
2018-05-12T00:55:07.889Z,89.80
2018-05-12T00:57:35.713Z,90.00
2018-05-12T01:00:04.192Z,90.00
2018-05-12T01:02:32.652Z,90.00
2018-05-12T01:05:00.336Z,90.00
2018-05-12T01:07:29.098Z,90.20
2018-05-12T01:09:56.804Z,90.20
2018-05-12T01:12:24.607Z,90.10
2018-05-12T01:14:52.596Z,90.10
2018-05-12T01:17:21.120Z,90.30
2018-05-12T01:19:49.143Z,90.20
2018-05-12T01:22:16.837Z,90.30
2018-05-12T01:24:45.267Z,90.30
2018-05-12T01:27:12.926Z,90.30
2018-05-12T01:29:40.711Z,90.30
2018-05-12T01:32:08.405Z,90.30
2018-05-12T01:34:36.939Z,90.20
2018-05-12T01:37:04.619Z,90.20
2018-05-12T01:39:32.510Z,90.20
2018-05-12T01:42:01.060Z,90.50
2018-05-12T01:44:28.826Z,90.00
2018-05-12T01:46:56.654Z,89.70
2018-05-12T01:49:24.537Z,89.70
2018-05-12T01:51:52.222Z,89.70
2018-05-12T01:54:19.885Z,89.70
2018-05-12T01:56:47.879Z,89.60
2018-05-12T01:59:15.516Z,89.60
2018-05-12T02:01:43.135Z,89.70
2018-05-12T02:04:10.797Z,89.30
2018-05-12T02:06:38.539Z,89.70
2018-05-12T02:09:07.067Z,90.00
2018-05-12T02:11:34.984Z,90.00
2018-05-12T02:14:02.617Z,90.00
2018-05-12T02:16:30.451Z,90.00
2018-05-12T02:18:58.539Z,90.10
2018-05-12T02:21:26.465Z,90.40
2018-05-12T02:23:55.058Z,90.40
2018-05-12T02:26:23.011Z,90.50
2018-05-12T02:28:51.455Z,90.60
2018-05-12T02:31:19.303Z,90.60
2018-05-12T02:33:47.253Z,90.60
2018-05-12T02:36:14.923Z,90.80
2018-05-12T02:38:42.655Z,90.80
2018-05-12T02:41:11.309Z,90.60
2018-05-12T02:43:39.051Z,90.60
2018-05-12T02:46:06.711Z,90.60
2018-05-12T02:48:34.423Z,90.60
2018-05-12T02:51:02.983Z,90.70
2018-05-12T02:53:30.611Z,90.70
2018-05-12T02:55:58.380Z,90.50
2018-05-12T02:58:25.995Z,90.50
2018-05-12T03:00:54.533Z,90.80
2018-05-12T03:03:22.231Z,90.50
2018-05-12T03:05:50.003Z,90.50
2018-05-12T03:08:19.059Z,90.40
2018-05-12T03:10:46.746Z,90.40
2018-05-12T03:13:15.180Z,90.40
2018-05-12T03:15:42.997Z,90.40
2018-05-12T03:18:10.702Z,90.40
2018-05-12T03:20:38.346Z,90.30
2018-05-12T03:23:05.986Z,90.10
2018-05-12T03:25:33.667Z,90.30
2018-05-12T03:28:01.357Z,90.70
2018-05-12T03:30:29.074Z,90.70
2018-05-12T03:32:56.669Z,90.60
2018-05-12T03:35:24.301Z,90.60
2018-05-12T03:37:52.683Z,90.60
2018-05-12T03:40:20.313Z,90.50
2018-05-12T03:42:47.951Z,90.60
2018-05-12T03:45:15.607Z,90.60
2018-05-12T03:47:43.271Z,90.40
2018-05-12T03:50:10.955Z,90.40
2018-05-12T03:52:39.425Z,90.60
2018-05-12T03:55:07.324Z,90.50
2018-05-12T03:57:35.947Z,90.60
2018-05-12T04:00:03.575Z,90.50
2018-05-12T04:02:32.029Z,90.40
2018-05-12T04:05:11.575Z,90.40
2018-05-12T04:07:51.007Z,89.90
2018-05-12T04:10:25.469Z,89.70
2018-05-12T04:12:53.199Z,89.20
2018-05-12T04:15:20.858Z,89.30
2018-05-12T04:17:48.547Z,88.90
2018-05-12T04:20:16.923Z,88.60
2018-05-12T04:22:45.347Z,88.30
2018-05-12T04:25:13.004Z,88.30
2018-05-12T04:27:41.016Z,88.50
2018-05-12T04:30:09.484Z,87.60
2018-05-12T04:32:37.141Z,87.60
2018-05-12T04:35:04.859Z,86.70
2018-05-12T04:37:32.548Z,85.70
2018-05-12T04:40:00.280Z,85.30
2018-05-12T04:42:28.705Z,83.90
2018-05-12T04:44:56.408Z,83.90
2018-05-12T04:47:25.915Z,82.50
2018-05-12T04:49:53.664Z,82.40
2018-05-12T04:52:21.336Z,81.10
2018-05-12T04:54:49.013Z,80.50
2018-05-12T04:57:17.470Z,77.40
2018-05-12T04:59:45.960Z,75.10
2018-05-12T05:02:13.630Z,75.00
2018-05-12T05:04:41.550Z,73.40
2018-05-12T05:07:09.302Z,71.40
2018-05-12T05:09:36.930Z,69.40
2018-05-12T05:12:05.340Z,65.20
2018-05-12T05:14:32.972Z,65.10
2018-05-12T05:17:01.381Z,60.40
2018-05-12T05:19:29.496Z,60.30
2018-05-12T05:21:57.210Z,58.80
2018-05-12T05:24:24.864Z,58.00
2018-05-12T05:26:52.574Z,54.60
2018-05-12T05:29:20.292Z,53.60
2018-05-12T05:31:47.960Z,53.70
2018-05-12T05:34:15.648Z,51.40
2018-05-12T05:36:43.348Z,49.70
2018-05-12T05:39:11.234Z,50.10
2018-05-12T05:41:39.675Z,46.60
2018-05-12T05:44:07.371Z,46.50
2018-05-12T05:46:40.055Z,45.90
2018-05-12T05:49:09.355Z,43.50
2018-05-12T05:51:37.017Z,43.30
2018-05-12T05:54:05.581Z,42.00
2018-05-12T05:56:33.178Z,42.00
2018-05-12T05:59:00.908Z,41.00
2018-05-12T06:01:29.475Z,40.00
2018-05-12T06:03:57.091Z,40.20
2018-05-12T06:06:24.818Z,40.10
2018-05-12T06:08:52.553Z,41.00
2018-05-12T06:11:20.183Z,42.40
2018-05-12T06:13:47.934Z,42.90
2018-05-12T06:16:15.609Z,42.60
2018-05-12T06:18:43.284Z,42.40
2018-05-12T06:21:11.059Z,42.50
2018-05-12T06:23:39.856Z,41.90
2018-05-12T06:26:07.509Z,41.50
2018-05-12T06:28:35.186Z,38.60
2018-05-12T06:31:02.811Z,38.40
2018-05-12T06:33:30.585Z,37.50
2018-05-12T06:35:58.356Z,38.90
2018-05-12T06:38:26.030Z,40.00
2018-05-12T06:40:53.687Z,41.00
2018-05-12T06:43:21.865Z,43.10
2018-05-12T06:45:49.503Z,44.30
2018-05-12T06:48:17.213Z,45.70
2018-05-12T06:50:44.929Z,47.40
2018-05-12T06:53:12.646Z,50.30
2018-05-12T06:55:40.729Z,51.20
2018-05-12T06:58:09.183Z,53.30
2018-05-12T07:00:36.833Z,53.30
2018-05-12T07:03:04.462Z,53.40
2018-05-12T07:05:32.161Z,54.50
2018-05-12T07:07:59.920Z,54.00
2018-05-12T07:10:27.615Z,55.00
2018-05-12T07:12:55.267Z,54.80
2018-05-12T07:15:22.963Z,55.80
2018-05-12T07:17:50.643Z,56.00
2018-05-12T07:20:18.459Z,56.70
2018-05-12T07:22:46.173Z,58.70
2018-05-12T07:25:13.965Z,57.30
2018-05-12T07:27:41.639Z,56.10
2018-05-12T07:30:09.323Z,56.80
2018-05-12T07:32:37.109Z,57.50
2018-05-12T07:35:04.801Z,59.10
2018-05-12T07:37:32.543Z,57.70
2018-05-12T07:40:00.171Z,57.10
2018-05-12T07:42:28.155Z,55.90
2018-05-12T07:44:56.584Z,56.00
2018-05-12T07:47:24.249Z,56.00
2018-05-12T07:49:52.022Z,55.30
2018-05-12T07:52:19.950Z,55.60
2018-05-12T07:54:47.610Z,56.50
2018-05-12T07:57:15.279Z,56.90
2018-05-12T07:59:42.957Z,56.30
2018-05-12T08:02:10.633Z,57.10
2018-05-12T08:04:38.394Z,56.30
2018-05-12T08:07:06.089Z,56.30
2018-05-12T08:09:33.839Z,57.00
2018-05-12T08:12:02.329Z,57.30
2018-05-12T08:14:30.739Z,55.00
2018-05-12T08:16:58.861Z,55.10
2018-05-12T08:19:26.527Z,55.60
2018-05-12T08:21:54.201Z,53.50
2018-05-12T08:24:21.857Z,53.50
2018-05-12T08:26:49.650Z,56.30
2018-05-12T08:29:17.285Z,53.20
2018-05-12T08:31:45.796Z,52.10
2018-05-12T08:34:13.439Z,52.60
2018-05-12T08:36:41.491Z,53.90
2018-05-12T08:39:09.251Z,53.90
2018-05-12T08:41:36.979Z,51.80
2018-05-12T08:44:04.668Z,53.20
2018-05-12T08:46:32.307Z,54.00
2018-05-12T08:49:00.130Z,51.10
2018-05-12T08:51:27.910Z,50.30
2018-05-12T08:53:56.347Z,51.70
2018-05-12T08:56:24.001Z,51.70
2018-05-12T08:58:51.689Z,53.60
2018-05-12T09:01:19.375Z,52.40
2018-05-12T09:03:47.831Z,50.90
2018-05-12T09:06:15.517Z,51.00
2018-05-12T09:08:43.960Z,49.80
2018-05-12T09:11:11.645Z,49.80
2018-05-12T09:13:39.321Z,48.90
2018-05-12T09:16:07.790Z,48.90
2018-05-12T09:18:36.278Z,48.30
2018-05-12T09:21:03.939Z,48.20
2018-05-12T09:23:32.423Z,50.00
2018-05-12T09:26:00.146Z,50.00
2018-05-12T09:28:27.844Z,47.80
2018-05-12T09:30:56.390Z,48.60
2018-05-12T09:33:24.032Z,48.70
2018-05-12T09:35:51.752Z,48.70
2018-05-12T09:38:19.387Z,47.60
2018-05-12T09:40:47.054Z,47.30
2018-05-12T09:43:14.730Z,47.00
2018-05-12T09:45:42.442Z,47.30
2018-05-12T09:48:10.170Z,47.00
2018-05-12T09:50:37.837Z,46.00
2018-05-12T09:53:05.483Z,45.90
2018-05-12T09:55:33.945Z,44.20
2018-05-12T09:58:01.671Z,44.30
2018-05-12T10:00:29.407Z,45.20
2018-05-12T10:02:57.892Z,43.80
2018-05-12T10:05:25.554Z,43.80
2018-05-12T10:07:54.006Z,43.70
2018-05-12T10:10:21.671Z,43.80
2018-05-12T10:12:49.347Z,45.60
2018-05-12T10:15:17.820Z,44.20
2018-05-12T10:17:45.541Z,44.30
2018-05-12T10:20:13.188Z,44.50
2018-05-12T10:22:40.898Z,44.50
2018-05-12T10:25:08.507Z,44.30
2018-05-12T10:27:36.222Z,44.00
2018-05-12T10:30:04.620Z,43.30
2018-05-12T10:32:32.390Z,43.30
2018-05-12T10:35:00.858Z,44.80
2018-05-12T10:37:29.332Z,45.60
2018-05-12T10:39:57.814Z,44.60
2018-05-12T10:42:25.810Z,44.60
2018-05-12T10:44:53.542Z,43.80
2018-05-12T10:47:21.239Z,45.50
2018-05-12T10:49:49.685Z,44.60
2018-05-12T10:52:17.386Z,44.60
2018-05-12T10:54:45.092Z,46.30
2018-05-12T10:57:12.717Z,45.20
2018-05-12T10:59:40.425Z,43.90
2018-05-12T11:02:08.041Z,43.10
2018-05-12T11:04:35.714Z,43.50
2018-05-12T11:07:03.384Z,43.20
2018-05-12T11:09:31.049Z,42.60
2018-05-12T11:11:58.713Z,43.10
2018-05-12T11:14:26.337Z,43.30
2018-05-12T11:16:54.721Z,43.40
2018-05-12T11:19:22.325Z,43.40
2018-05-12T11:21:50.111Z,43.50
2018-05-12T11:24:18.551Z,41.00
2018-05-12T11:26:46.663Z,41.00
2018-05-12T11:29:15.004Z,41.20
2018-05-12T11:31:42.704Z,41.20
2018-05-12T11:34:10.339Z,41.40
2018-05-12T11:36:38.187Z,41.30
2018-05-12T11:39:05.889Z,41.30
2018-05-12T11:41:33.509Z,41.00
2018-05-12T11:44:01.181Z,40.80
2018-05-12T11:46:28.841Z,39.30
2018-05-12T11:48:56.505Z,38.70
2018-05-12T11:51:24.192Z,35.40
2018-05-12T11:53:51.897Z,34.50
2018-05-12T11:56:20.472Z,33.40
2018-05-12T11:58:48.884Z,33.70
2018-05-12T12:01:16.516Z,33.60
2018-05-12T12:03:44.972Z,31.20
2018-05-12T12:06:12.602Z,31.20
2018-05-12T12:08:40.315Z,33.90
2018-05-12T12:11:08.688Z,29.20
2018-05-12T12:13:37.083Z,28.30
2018-05-12T12:16:04.694Z,28.30
2018-05-12T12:18:32.349Z,27.90
2018-05-12T12:21:00.127Z,28.00
2018-05-12T12:23:27.779Z,28.00
2018-05-12T12:25:55.471Z,27.60
2018-05-12T12:28:24.609Z,28.00
2018-05-12T12:30:52.253Z,28.00
2018-05-12T12:33:21.123Z,27.00
2018-05-12T12:35:48.721Z,27.00
2018-05-12T12:38:16.363Z,26.90
2018-05-12T12:40:44.777Z,26.60
2018-05-12T12:43:12.489Z,26.50
2018-05-12T12:45:40.880Z,26.20
2018-05-12T12:48:09.295Z,25.40
2018-05-12T12:50:36.977Z,25.40
2018-05-12T12:53:04.614Z,26.50
2018-05-12T12:55:32.233Z,27.80
2018-05-12T12:57:59.897Z,29.10
2018-05-12T13:00:27.559Z,29.70
2018-05-12T13:02:55.978Z,29.60
2018-05-12T13:05:23.638Z,29.50
2018-05-12T13:07:51.251Z,30.40
2018-05-12T13:10:19.905Z,29.40
2018-05-12T13:12:47.543Z,29.40
2018-05-12T13:15:15.208Z,28.20
2018-05-12T13:17:42.845Z,29.70
2018-05-12T13:20:11.208Z,30.40
2018-05-12T13:22:39.659Z,30.20
2018-05-12T13:25:07.251Z,30.30
2018-05-12T13:27:34.981Z,30.10
2018-05-12T13:30:02.640Z,31.70
2018-05-12T13:32:30.274Z,29.40
2018-05-12T13:34:58.099Z,29.40
2018-05-12T13:37:25.728Z,29.80
2018-05-12T13:39:53.359Z,30.40
2018-05-12T13:42:21.189Z,30.60
2018-05-12T13:44:48.732Z,32.10
2018-05-12T13:47:16.369Z,33.30
2018-05-12T13:49:43.969Z,34.10
2018-05-12T13:52:12.366Z,34.20
2018-05-12T13:54:40.761Z,33.90
2018-05-12T13:57:08.461Z,33.80
2018-05-12T13:59:36.068Z,32.80
2018-05-12T14:02:04.502Z,29.40
2018-05-12T14:04:32.127Z,29.30
2018-05-12T14:06:59.750Z,28.60
2018-05-12T14:09:27.405Z,27.60
2018-05-12T14:11:55.006Z,28.00
2018-05-12T14:14:23.360Z,29.10
2018-05-12T14:16:50.955Z,28.60
2018-05-12T14:19:18.590Z,28.80
2018-05-12T14:21:46.234Z,28.70
2018-05-12T14:24:13.806Z,27.70
2018-05-12T14:26:41.379Z,27.20
2018-05-12T14:29:09.765Z,27.40
2018-05-12T14:31:37.368Z,27.40
2018-05-12T14:34:04.978Z,27.30
2018-05-12T14:36:33.338Z,28.00
2018-05-12T14:39:01.698Z,29.20
2018-05-12T14:41:29.322Z,29.20
2018-05-12T14:43:56.949Z,29.60
2018-05-12T14:46:25.380Z,29.80
2018-05-12T14:48:52.925Z,29.80
2018-05-12T14:51:20.550Z,27.80
2018-05-12T14:53:48.938Z,26.60
2018-05-12T14:56:17.334Z,25.90
2018-05-12T14:58:44.958Z,25.90
2018-05-12T15:01:12.565Z,25.20
2018-05-12T15:03:40.160Z,25.80
2018-05-12T15:06:07.768Z,25.90
2018-05-12T15:08:35.370Z,26.30
2018-05-12T15:11:07.420Z,27.80
2018-05-12T15:13:42.348Z,26.40
2018-05-12T15:16:10.038Z,26.50
2018-05-12T15:18:42.658Z,27.20
2018-05-12T15:21:11.230Z,27.80
2018-05-12T15:23:39.593Z,27.80
2018-05-12T15:26:07.196Z,27.70
2018-05-12T15:28:35.748Z,27.20
2018-05-12T15:31:04.073Z,27.50
2018-05-12T15:33:31.630Z,27.40
2018-05-12T15:35:59.244Z,27.20
2018-05-12T15:38:27.620Z,27.70
2018-05-12T15:40:55.231Z,27.60
2018-05-12T15:43:22.907Z,27.50
2018-05-12T15:45:50.504Z,27.70
2018-05-12T15:48:18.075Z,28.60
2018-05-12T15:50:46.448Z,27.60
2018-05-12T15:53:14.063Z,27.50
2018-05-12T15:55:41.675Z,28.30
2018-05-12T15:58:09.288Z,29.40
2018-05-12T16:00:36.901Z,30.10
2018-05-12T16:03:06.025Z,30.30
2018-05-12T16:05:35.369Z,32.60
2018-05-12T16:08:02.996Z,32.70
2018-05-12T16:10:30.576Z,33.60
2018-05-12T16:12:58.200Z,35.10
2018-05-12T16:15:25.783Z,35.60
2018-05-12T16:17:53.456Z,36.90
2018-05-12T16:20:27.764Z,37.30
2018-05-12T16:22:56.109Z,39.60
2018-05-12T16:25:23.748Z,39.50
2018-05-12T16:27:51.381Z,39.60
2018-05-12T16:30:18.996Z,39.30
2018-05-12T16:32:46.586Z,38.60
2018-05-12T16:35:14.226Z,39.00
2018-05-12T16:37:41.808Z,39.60
2018-05-12T16:40:09.424Z,39.80
2018-05-12T16:42:38.264Z,41.00
2018-05-12T16:45:05.893Z,41.00
2018-05-12T16:47:38.741Z,41.70
2018-05-12T16:50:06.341Z,41.80
2018-05-12T16:52:33.967Z,41.70
2018-05-12T16:55:01.565Z,41.50
2018-05-12T16:57:29.183Z,41.50
2018-05-12T16:59:56.814Z,41.30
2018-05-12T17:02:24.455Z,41.20
2018-05-12T17:04:52.073Z,42.10
2018-05-12T17:07:19.694Z,42.60
2018-05-12T17:09:47.280Z,43.40
2018-05-12T17:12:14.910Z,44.10
2018-05-12T17:14:42.530Z,44.90
2018-05-12T17:17:10.901Z,46.00
2018-05-12T17:19:38.490Z,45.90
2018-05-12T17:22:06.095Z,46.90
2018-05-12T17:24:33.711Z,47.10
2018-05-12T17:27:01.378Z,47.60
2018-05-12T17:29:43.336Z,47.90
2018-05-12T17:32:11.701Z,48.90
2018-05-12T17:34:39.276Z,48.90
2018-05-12T17:37:07.641Z,48.60
2018-05-12T17:39:35.228Z,49.20
2018-05-12T17:42:03.607Z,48.30
2018-05-12T17:44:31.971Z,48.00
2018-05-12T17:46:59.575Z,48.00
2018-05-12T17:49:27.164Z,48.00
2018-05-12T17:51:54.771Z,48.00
2018-05-12T17:54:23.127Z,47.20
2018-05-12T17:56:50.741Z,47.20
2018-05-12T17:59:18.341Z,47.00
2018-05-12T18:01:46.237Z,47.10
2018-05-12T18:04:14.617Z,47.30
2018-05-12T18:06:43.169Z,47.10
2018-05-12T18:09:11.557Z,47.30
2018-05-12T18:11:39.364Z,47.30
2018-05-12T18:14:07.009Z,48.50
2018-05-12T18:16:34.736Z,49.10
2018-05-12T18:19:02.386Z,49.10
2018-05-12T18:21:29.961Z,49.80
2018-05-12T18:23:57.587Z,50.10
2018-05-12T18:26:25.179Z,50.50
2018-05-12T18:28:52.806Z,50.50
2018-05-12T18:31:20.619Z,50.90
2018-05-12T18:33:48.349Z,51.00
2018-05-12T18:36:15.935Z,51.30
2018-05-12T18:38:44.319Z,51.90
2018-05-12T18:41:11.939Z,51.90
2018-05-12T18:43:39.548Z,52.10
2018-05-12T18:46:07.162Z,52.50
2018-05-12T18:48:34.727Z,52.50
2018-05-12T18:51:02.297Z,52.70
2018-05-12T18:53:29.949Z,52.80
2018-05-12T18:55:57.539Z,52.90
2018-05-12T18:58:25.153Z,53.20
2018-05-12T19:00:52.719Z,53.30
2018-05-12T19:03:20.327Z,53.40
2018-05-12T19:05:48.700Z,53.50
2018-05-12T19:08:16.446Z,53.50
2018-05-12T19:10:44.080Z,53.20
2018-05-12T19:13:11.729Z,53.40
2018-05-12T19:15:39.347Z,52.80
2018-05-12T19:18:06.982Z,52.50
2018-05-12T19:20:36.228Z,52.30
2018-05-12T19:23:04.610Z,52.40
2018-05-12T19:25:32.970Z,52.30
2018-05-12T19:28:00.590Z,53.00
2018-05-12T19:30:28.255Z,52.50
2018-05-12T19:32:55.880Z,52.30
2018-05-12T19:35:23.478Z,52.50
2018-05-12T19:37:51.120Z,52.60
2018-05-12T19:40:18.677Z,52.50
2018-05-12T19:42:46.296Z,52.80
2018-05-12T19:45:13.910Z,52.70
2018-05-12T19:47:41.520Z,53.00
2018-05-12T19:50:09.154Z,52.70
2018-05-12T19:52:36.784Z,53.40
2018-05-12T19:55:04.341Z,52.80
2018-05-12T19:57:31.989Z,52.50
2018-05-12T19:59:59.622Z,52.90
2018-05-12T20:02:27.255Z,52.90
2018-05-12T20:04:58.318Z,53.00
2018-05-12T20:07:25.944Z,53.00
2018-05-12T20:09:53.665Z,53.30
2018-05-12T20:12:22.030Z,53.30
2018-05-12T20:14:50.439Z,53.20
2018-05-12T20:17:18.828Z,53.70
2018-05-12T20:19:46.430Z,53.60
2018-05-12T20:22:14.075Z,53.80
2018-05-12T20:24:41.666Z,53.80
2018-05-12T20:27:09.310Z,53.90
2018-05-12T20:29:36.946Z,53.90
2018-05-12T20:32:04.502Z,54.00
2018-05-12T20:34:37.894Z,54.00
2018-05-12T20:37:05.582Z,54.80
2018-05-12T20:39:33.198Z,54.40
2018-05-12T20:42:00.750Z,54.60
2018-05-12T20:44:29.108Z,55.40
2018-05-12T20:46:56.695Z,55.40
2018-05-12T20:49:24.396Z,55.40
2018-05-12T20:51:52.031Z,55.40
2018-05-12T20:54:19.622Z,55.90
2018-05-12T20:56:47.206Z,56.30
2018-05-12T20:59:14.802Z,56.60
2018-05-12T21:01:42.420Z,57.20
2018-05-12T21:04:10.063Z,57.50
2018-05-12T21:06:37.725Z,57.80
2018-05-12T21:09:05.342Z,58.20
2018-05-12T21:11:33.735Z,58.90
2018-05-12T21:14:01.323Z,58.90
2018-05-12T21:16:28.902Z,59.00
2018-05-12T21:18:56.528Z,59.30
2018-05-12T21:21:24.123Z,59.60
2018-05-12T21:23:51.830Z,59.90
2018-05-12T21:26:19.366Z,60.00
2018-05-12T21:28:46.990Z,60.20
2018-05-12T21:31:14.613Z,60.60
2018-05-12T21:33:42.272Z,60.60
2018-05-12T21:36:09.886Z,61.40
2018-05-12T21:38:37.522Z,61.00
2018-05-12T21:41:05.140Z,61.10
2018-05-12T21:43:32.755Z,61.10
2018-05-12T21:46:00.403Z,61.40
2018-05-12T21:48:27.974Z,61.70
2018-05-12T21:50:55.554Z,61.90
2018-05-12T21:53:23.172Z,62.10
2018-05-12T21:55:50.790Z,62.40
2018-05-12T21:58:18.370Z,62.50
2018-05-12T22:00:46.763Z,63.10
2018-05-12T22:03:15.135Z,63.50
2018-05-12T22:05:43.472Z,63.30
2018-05-12T22:08:11.145Z,63.30
2018-05-12T22:10:38.710Z,63.50
2018-05-12T22:13:06.363Z,63.60
2018-05-12T22:15:33.914Z,63.90
2018-05-12T22:18:01.540Z,64.00
2018-05-12T22:20:29.175Z,64.20
2018-05-12T22:22:57.531Z,64.50
2018-05-12T22:25:26.606Z,64.70
2018-05-12T22:27:54.156Z,64.60
2018-05-12T22:30:21.724Z,64.80
2018-05-12T22:32:49.321Z,65.20
2018-05-12T22:35:17.711Z,65.60
2018-05-12T22:37:46.051Z,65.60
2018-05-12T22:40:13.654Z,65.50
2018-05-12T22:42:42.009Z,66.00
2018-05-12T22:45:09.615Z,66.00
2018-05-12T22:47:37.223Z,66.10
2018-05-12T22:50:04.837Z,66.40
2018-05-12T22:52:32.445Z,66.40
2018-05-12T22:55:00.007Z,66.40
2018-05-12T22:57:27.619Z,66.70
2018-05-12T22:59:55.234Z,66.80
2018-05-12T23:02:22.814Z,67.10
2018-05-12T23:04:50.424Z,67.20
2018-05-12T23:07:17.989Z,67.70
2018-05-12T23:09:45.601Z,68.00
2018-05-12T23:12:13.238Z,68.20
2018-05-12T23:14:41.594Z,68.40
2018-05-12T23:17:09.171Z,68.40
2018-05-12T23:19:36.753Z,69.10
2018-05-12T23:22:05.128Z,69.60
2018-05-12T23:24:33.522Z,69.50
2018-05-12T23:27:01.137Z,69.40
2018-05-12T23:29:28.750Z,70.10
2018-05-12T23:31:56.355Z,70.40
2018-05-12T23:34:23.957Z,70.40
2018-05-12T23:36:52.347Z,70.80
2018-05-12T23:39:19.943Z,70.70
2018-05-12T23:41:47.581Z,70.90
2018-05-12T23:44:15.199Z,70.90
2018-05-12T23:46:42.842Z,70.80
2018-05-12T23:49:10.439Z,70.50
2018-05-12T23:51:38.830Z,71.00
2018-05-12T23:54:06.455Z,70.90
2018-05-12T23:56:34.040Z,71.20
2018-05-12T23:59:01.669Z,71.40
